createdAt,value
2023-05-08T00:01:59.803Z,4.82
2023-05-08T00:07:01.712Z,4.69
2023-05-08T00:12:03.642Z,4.58
2023-05-08T00:17:05.741Z,4.47
2023-05-08T00:22:08.059Z,4.34
2023-05-08T00:27:09.853Z,4.21
2023-05-08T00:32:12.082Z,4.09
2023-05-08T00:37:32.701Z,4.01
2023-05-08T00:42:34.621Z,4.05
2023-05-08T00:47:36.748Z,4.19
2023-05-08T00:52:39.350Z,4.34
2023-05-08T00:57:41.300Z,4.52
2023-05-08T01:02:43.773Z,4.71
2023-05-08T01:07:45.625Z,4.86
2023-05-08T01:13:07.686Z,4.98
2023-05-08T01:18:42.741Z,5.10
2023-05-08T01:24:36.695Z,5.18
2023-05-08T01:30:11.536Z,5.20
2023-05-08T01:35:41.220Z,5.25
2023-05-08T01:41:08.998Z,5.28
2023-05-08T01:46:16.918Z,5.28
2023-05-08T01:51:23.009Z,5.25
2023-05-08T01:56:29.130Z,5.27
2023-05-08T02:01:33.415Z,5.32
2023-05-08T02:06:37.408Z,5.35
2023-05-08T02:11:46.096Z,5.37
2023-05-08T02:16:54.954Z,5.38
2023-05-08T02:22:00.604Z,5.39
2023-05-08T02:27:02.812Z,5.40
2023-05-08T02:32:06.697Z,5.39
2023-05-08T02:37:10.474Z,5.37
2023-05-08T02:42:12.827Z,5.40
2023-05-08T02:47:29.756Z,5.43
2023-05-08T02:53:03.384Z,5.43
2023-05-08T02:58:08.293Z,5.48
2023-05-08T03:03:21.159Z,5.50
2023-05-08T03:08:28.349Z,5.51
2023-05-08T03:13:34.563Z,5.50
2023-05-08T03:18:54.927Z,5.48
2023-05-08T03:24:00.738Z,5.47
2023-05-08T03:29:03.015Z,5.52
2023-05-08T03:34:09.707Z,5.54
2023-05-08T03:39:12.216Z,5.52
2023-05-08T03:44:16.561Z,5.48
2023-05-08T03:49:20.044Z,5.46
2023-05-08T03:54:25.413Z,5.41
2023-05-08T03:59:33.346Z,5.38
2023-05-08T04:04:40.892Z,5.37
2023-05-08T04:09:58.358Z,5.37
2023-05-08T04:15:09.286Z,5.35
2023-05-08T04:20:17.152Z,5.36
2023-05-08T04:25:21.379Z,5.42
2023-05-08T04:30:24.668Z,5.48
2023-05-08T04:35:26.791Z,5.57
2023-05-08T04:40:29.489Z,5.71
2023-05-08T04:45:31.750Z,5.91
2023-05-08T04:50:33.663Z,6.15
2023-05-08T04:55:35.590Z,6.43
2023-05-08T05:00:37.525Z,6.62
2023-05-08T05:05:39.534Z,6.75
2023-05-08T05:10:41.558Z,6.97
2023-05-08T05:15:43.536Z,6.97
2023-05-08T05:20:46.311Z,6.81
2023-05-08T05:25:48.579Z,6.88
2023-05-08T05:30:50.344Z,7.09
2023-05-08T05:35:52.434Z,7.27
2023-05-08T05:40:54.349Z,7.29
2023-05-08T05:45:56.284Z,7.28
2023-05-08T05:50:59.578Z,7.33
2023-05-08T05:56:01.343Z,7.25
2023-05-08T06:01:04.680Z,7.30
2023-05-08T06:06:06.931Z,7.28
2023-05-08T06:11:08.825Z,7.29
2023-05-08T06:16:10.637Z,7.25
2023-05-08T06:21:12.360Z,7.17
2023-05-08T06:26:29.896Z,7.21
2023-05-08T06:31:34.643Z,7.24
2023-05-08T06:36:36.676Z,7.38
2023-05-08T06:41:38.477Z,7.51
2023-05-08T06:46:40.663Z,7.60
2023-05-08T06:51:42.546Z,7.66
2023-05-08T06:56:44.438Z,7.68
2023-05-08T07:01:46.332Z,7.55
2023-05-08T07:06:48.161Z,7.58
2023-05-08T07:11:49.880Z,7.71
2023-05-08T07:16:51.583Z,7.84
2023-05-08T07:21:53.314Z,7.99
2023-05-08T07:26:55.291Z,8.03
2023-05-08T07:31:57.122Z,8.00
2023-05-08T07:36:58.994Z,8.08
2023-05-08T07:42:01.605Z,8.39
2023-05-08T07:47:03.853Z,8.53
2023-05-08T07:52:05.832Z,8.58
2023-05-08T07:57:07.587Z,8.67
2023-05-08T08:02:09.548Z,8.70
2023-05-08T08:07:11.438Z,8.81
2023-05-08T08:12:13.122Z,9.02
2023-05-08T08:17:14.862Z,9.33
2023-05-08T08:22:16.705Z,9.52
2023-05-08T08:27:18.387Z,9.90
2023-05-08T08:32:20.075Z,10.04
2023-05-08T08:37:22.179Z,9.66
2023-05-08T08:42:24.234Z,9.65
2023-05-08T08:47:29.915Z,9.92
2023-05-08T08:52:54.527Z,9.74
2023-05-08T08:58:26.708Z,9.49
2023-05-08T09:03:28.620Z,9.54
2023-05-08T09:08:30.887Z,9.61
2023-05-08T09:13:32.653Z,9.59
2023-05-08T09:18:34.378Z,9.98
2023-05-08T09:23:36.737Z,10.59
2023-05-08T09:28:38.500Z,11.11
2023-05-08T09:33:44.753Z,11.25
2023-05-08T09:38:46.497Z,11.15
2023-05-08T09:44:01.621Z,10.89
2023-05-08T09:49:04.477Z,10.63
2023-05-08T09:54:17.897Z,10.84
2023-05-08T09:59:27.982Z,11.24
2023-05-08T10:04:34.222Z,11.59
2023-05-08T10:09:49.678Z,11.92
2023-05-08T10:14:52.394Z,12.23
2023-05-08T10:20:00.068Z,12.42
2023-05-08T10:25:06.626Z,12.68
2023-05-08T10:30:10.000Z,12.82
2023-05-08T10:35:12.437Z,13.01
2023-05-08T10:40:18.711Z,13.19
2023-05-08T10:45:20.734Z,13.39
2023-05-08T10:50:33.715Z,13.73
2023-05-08T10:55:41.357Z,14.20
2023-05-08T11:01:09.414Z,14.51
2023-05-08T11:06:13.619Z,14.60
2023-05-08T11:11:24.720Z,14.71
2023-05-08T11:16:54.800Z,14.81
2023-05-08T11:22:23.916Z,14.18
2023-05-08T11:27:34.999Z,14.00
2023-05-08T11:32:56.116Z,13.39
2023-05-08T11:38:17.255Z,12.92
2023-05-08T11:43:29.311Z,12.64
2023-05-08T11:48:32.800Z,12.39
2023-05-08T11:53:36.505Z,12.50
2023-05-08T11:58:40.745Z,12.71
2023-05-08T12:04:02.152Z,13.12
2023-05-08T12:09:13.127Z,13.88
2023-05-08T12:14:18.254Z,14.13
2023-05-08T12:19:20.570Z,13.57
2023-05-08T12:24:23.733Z,12.85
2023-05-08T12:29:28.696Z,12.69
2023-05-08T12:34:30.403Z,12.36
2023-05-08T12:39:37.523Z,12.14
2023-05-08T12:44:39.327Z,12.00
2023-05-08T12:49:41.055Z,12.02
2023-05-08T12:54:49.513Z,12.35
2023-05-08T12:59:51.369Z,12.55
2023-05-08T13:04:56.569Z,13.00
2023-05-08T13:10:05.514Z,13.45
2023-05-08T13:15:08.233Z,13.67
2023-05-08T13:20:11.383Z,14.41
2023-05-08T13:25:13.719Z,15.01
2023-05-08T13:30:16.687Z,15.25
2023-05-08T13:35:19.514Z,14.90
2023-05-08T13:40:21.546Z,14.14
2023-05-08T13:45:23.482Z,13.86
2023-05-08T13:50:25.399Z,14.33
2023-05-08T13:55:27.247Z,14.31
2023-05-08T14:00:29.040Z,14.28
2023-05-08T14:05:30.823Z,14.38
2023-05-08T14:10:32.617Z,13.98
2023-05-08T14:15:37.398Z,13.57
2023-05-08T14:20:39.566Z,13.41
2023-05-08T14:25:41.294Z,13.22
2023-05-08T14:30:42.963Z,13.29
2023-05-08T14:35:45.956Z,13.71
2023-05-08T14:40:51.099Z,14.00
2023-05-08T14:45:52.939Z,14.28
2023-05-08T14:50:54.796Z,14.21
2023-05-08T14:55:56.872Z,13.80
2023-05-08T15:00:58.864Z,13.36
2023-05-08T15:06:01.198Z,12.92
2023-05-08T15:11:02.888Z,12.62
2023-05-08T15:16:05.585Z,12.79
2023-05-08T15:21:07.406Z,13.17
2023-05-08T15:26:09.184Z,12.98
2023-05-08T15:31:10.831Z,12.53
2023-05-08T15:36:13.677Z,12.73
2023-05-08T15:41:15.743Z,13.14
2023-05-08T15:46:17.748Z,13.11
2023-05-08T15:51:19.810Z,13.16
2023-05-08T15:56:24.465Z,12.97
2023-05-08T16:01:26.233Z,12.75
2023-05-08T16:06:28.544Z,12.44
2023-05-08T16:11:33.769Z,12.29
2023-05-08T16:16:35.707Z,12.08
2023-05-08T16:21:37.552Z,12.00
2023-05-08T16:26:39.243Z,12.44
2023-05-08T16:31:40.938Z,12.56
2023-05-08T16:36:42.674Z,12.25
2023-05-08T16:41:44.555Z,12.15
2023-05-08T16:46:54.282Z,12.11
2023-05-08T16:51:56.034Z,11.99
2023-05-08T16:56:58.071Z,11.70
2023-05-08T17:01:59.963Z,11.38
2023-05-08T17:07:01.822Z,11.09
2023-05-08T17:12:03.812Z,10.86
2023-05-08T17:17:06.269Z,10.77
2023-05-08T17:22:08.011Z,10.90
2023-05-08T17:27:09.909Z,11.01
2023-05-08T17:32:11.802Z,11.24
2023-05-08T17:37:13.749Z,11.36
2023-05-08T17:42:15.957Z,11.25
2023-05-08T17:47:17.974Z,11.31
2023-05-08T17:52:19.649Z,11.18
2023-05-08T17:57:21.444Z,10.91
2023-05-08T18:02:23.224Z,10.52
2023-05-08T18:07:25.315Z,10.17
2023-05-08T18:12:27.017Z,9.83
2023-05-08T18:17:29.794Z,9.58
2023-05-08T18:22:31.610Z,9.36
2023-05-08T18:27:36.269Z,9.10
2023-05-08T18:32:37.968Z,8.82
2023-05-08T18:37:39.699Z,8.54
2023-05-08T18:42:41.393Z,8.27
2023-05-08T18:47:43.132Z,8.03
2023-05-08T18:52:45.071Z,7.82
2023-05-08T18:57:46.785Z,7.63
2023-05-08T19:02:48.526Z,7.41
2023-05-08T19:07:50.480Z,7.22
2023-05-08T19:12:52.196Z,7.07
2023-05-08T19:17:54.027Z,6.96
2023-05-08T19:22:55.784Z,6.89
2023-05-08T19:27:58.739Z,6.81
2023-05-08T19:33:00.413Z,6.76
2023-05-08T19:38:02.134Z,6.64
2023-05-08T19:43:04.195Z,6.48
2023-05-08T19:48:10.562Z,6.27
2023-05-08T19:53:17.980Z,6.06
2023-05-08T19:58:19.712Z,5.86
2023-05-08T20:03:21.528Z,5.65
2023-05-08T20:08:23.517Z,5.46
2023-05-08T20:13:25.435Z,5.25
2023-05-08T20:18:27.269Z,5.08
2023-05-08T20:23:29.029Z,4.99
2023-05-08T20:28:31.129Z,4.96
2023-05-08T20:33:32.854Z,4.89
2023-05-08T20:38:36.550Z,4.78
2023-05-08T20:43:38.580Z,4.69
2023-05-08T20:48:40.395Z,4.58
2023-05-08T20:53:42.141Z,4.45
2023-05-08T20:58:43.806Z,4.30
2023-05-08T21:03:45.551Z,4.15
2023-05-08T21:08:48.231Z,4.04
2023-05-08T21:13:55.434Z,4.02
2023-05-08T21:18:58.327Z,4.03
2023-05-08T21:24:00.379Z,4.01
2023-05-08T21:29:04.283Z,3.93
2023-05-08T21:34:07.293Z,3.82
2023-05-08T21:39:10.818Z,3.72
2023-05-08T21:44:15.718Z,3.65
2023-05-08T21:49:19.764Z,3.57
2023-05-08T21:54:24.172Z,3.51
2023-05-08T21:59:26.261Z,3.51
2023-05-08T22:04:27.971Z,3.51
2023-05-08T22:09:29.724Z,3.52
2023-05-08T22:14:31.454Z,3.55
2023-05-08T22:19:33.270Z,3.56
2023-05-08T22:24:34.985Z,3.57
2023-05-08T22:29:36.629Z,3.53
2023-05-08T22:34:38.642Z,3.48
2023-05-08T22:39:40.408Z,3.48
2023-05-08T22:44:43.527Z,3.50
2023-05-08T22:49:45.212Z,3.53
2023-05-08T22:54:47.059Z,3.55
2023-05-08T22:59:48.907Z,3.53
2023-05-08T23:04:51.051Z,3.50
2023-05-08T23:09:53.830Z,3.48
2023-05-08T23:14:57.992Z,3.48
2023-05-08T23:19:59.781Z,3.54
2023-05-08T23:25:01.509Z,3.60
2023-05-08T23:30:03.634Z,3.63
2023-05-08T23:35:11.638Z,3.68
2023-05-08T23:40:14.366Z,3.72
2023-05-08T23:45:16.542Z,3.71
2023-05-08T23:50:20.906Z,3.63
2023-05-08T23:55:22.637Z,3.54
